EPSC/SZZ METAR and TAF weather

Enter ICAO airport designator
Station Type Date Time Source
EPSC METAR 2020/07/09 08:00 UTC NOAA

EPSC 090800Z 17006KT 120V230 9999 FEW029 SCT036 BKN044 17/09 Q1015


Station Type Date Time Source
EPSC Decoded METAR 2020/07/09 08:00 UTC NOAA

Szczecin, Poland (EPSC) 53-24N 014-37E 3M
Jul 09, 2020 - 04:00 AM EDT / 2020.07.09 0800 UTC
Wind: from the S (170 degrees) at 7 MPH (6 KT) (direction variable):0
Visibility: greater than 7 mile(s):0
Sky conditions: mostly cloudy
Temperature: 62 F (17 C)
Dew Point: 48 F (9 C)
Relative Humidity: 59%
Pressure (altimeter): 29.97 in. Hg (1015 hPa)
ob: EPSC 090800Z 17006KT 120V230 9999 FEW029 SCT036 BKN044 17/09 Q1015
cycle: 8

Station Type Date Time Source
EPSC TAF 2020/07/09 06:33 UTC NOAA

TAF EPSC 090530Z 0906/1006 VRB02KT 9999 SCT035
BECMG 0909/0912 18010KT
TEMPO 0909/0918 -SHRA SCT005 BKN030CB
BECMG 0918/0920 BKN014
TEMPO 0920/1006 3000 BR BKN005

Example: see airport list